Crowley, Texas
Current Conditions -  °F | °C
As of 10:15 PM on Wednesday 17 Dec 2014 (Local Time) from KFWS Reporting Station
Moderate Rain Moderate Rain  
Wind Chill: 44°   Ceiling: 400
Heat Index: 44°   Visibility: 3mi
Dew Point: 43°   Wind: 3mph
Humidity: 96%   Direction: 100°E
Pressure: 30.18"   Gusts: NA
Location:  32.58°N, 97.36°W
Report Text: KFWS 180415Z AUTO 10003KT 3SM RA BKN004 OVC013 07/06 A3018 RMK AO2 P0004 T00650059
Loading
Personal Weather Stations






























Interactive Weather Map New forecast layout! Learn more

10-Day Weather Forecast

Advertisements
Track Severe Weather on mobile